sensor_id;sensor_type;location;lat;lon;timestamp;pressure;altitude;pressure_sealevel;temperature;humidity
12991;BME280;6560;57.692;11.958;2023-08-20T00:00:31;101621.06;;;34.82;86.82
12991;BME280;6560;57.692;11.958;2023-08-20T00:03:07;101625.09;;;34.39;91.17
12991;BME280;6560;57.692;11.958;2023-08-20T00:05:38;101617.25;;;34.93;91.06
12991;BME280;6560;57.692;11.958;2023-08-20T00:08:04;101621.13;;;34.75;90.72
12991;BME280;6560;57.692;11.958;2023-08-20T00:10:32;101613.13;;;34.51;92.51
12991;BME280;6560;57.692;11.958;2023-08-20T00:12:58;101598.16;;;34.86;90.05
12991;BME280;6560;57.692;11.958;2023-08-20T00:15:25;101593.75;;;34.68;94.22
12991;BME280;6560;57.692;11.958;2023-08-20T00:17:54;101620.91;;;33.84;99.73
12991;BME280;6560;57.692;11.958;2023-08-20T00:20:23;101612.56;;;34.02;100.00
12991;BME280;6560;57.692;11.958;2023-08-20T00:22:49;101595.91;;;34.37;95.66
12991;BME280;6560;57.692;11.958;2023-08-20T00:25:17;101608.84;;;35.11;90.49
12991;BME280;6560;57.692;11.958;2023-08-20T00:27:46;101609.59;;;35.26;91.53
12991;BME280;6560;57.692;11.958;2023-08-20T00:30:13;101612.56;;;34.07;99.09
12991;BME280;6560;57.692;11.958;2023-08-20T00:32:39;101614.28;;;34.17;100.00
12991;BME280;6560;57.692;11.958;2023-08-20T00:35:06;101601.81;;;33.70;100.00
12991;BME280;6560;57.692;11.958;2023-08-20T00:37:35;101605.50;;;34.84;96.71
12991;BME280;6560;57.692;11.958;2023-08-20T00:40:02;101602.25;;;35.29;89.24
12991;BME280;6560;57.692;11.958;2023-08-20T00:42:31;101607.75;;;35.29;89.87
12991;BME280;6560;57.692;11.958;2023-08-20T00:44:58;101609.22;;;35.54;87.82
12991;BME280;6560;57.692;11.958;2023-08-20T00:47:23;101599.59;;;35.22;90.85
12991;BME280;6560;57.692;11.958;2023-08-20T00:49:49;101612.34;;;34.37;97.90
12991;BME280;6560;57.692;11.958;2023-08-20T00:52:17;101607.72;;;34.44;100.00
12991;BME280;6560;57.692;11.958;2023-08-20T00:54:49;101613.63;;;33.86;100.00
12991;BME280;6560;57.692;11.958;2023-08-20T00:57:17;101611.69;;;33.98;100.00
12991;BME280;6560;57.692;11.958;2023-08-20T00:59:50;101611.00;;;33.58;100.00
12991;BME280;6560;57.692;11.958;2023-08-20T01:02:17;101609.16;;;33.67;100.00
12991;BME280;6560;57.692;11.958;2023-08-20T01:04:48;101615.34;;;33.94;100.00
12991;BME280;6560;57.692;11.958;2023-08-20T01:10:12;101620.53;;;34.37;100.00
12991;BME280;6560;57.692;11.958;2023-08-20T01:12:41;101626.16;;;34.14;100.00
12991;BME280;6560;57.692;11.958;2023-08-20T01:15:08;101617.88;;;34.29;100.00
12991;BME280;6560;57.692;11.958;2023-08-20T01:17:39;101621.63;;;34.12;100.00
12991;BME280;6560;57.692;11.958;2023-08-20T01:20:11;101605.53;;;34.81;100.00
12991;BME280;6560;57.692;11.958;2023-08-20T01:26:01;101616.94;;;34.30;100.00
12991;BME280;6560;57.692;11.958;2023-08-20T01:28:32;101625.44;;;33.91;100.00
12991;BME280;6560;57.692;11.958;2023-08-20T01:30:59;101616.41;;;34.88;100.00
12991;BME280;6560;57.692;11.958;2023-08-20T01:33:46;101615.41;;;35.72;93.65
12991;BME280;6560;57.692;11.958;2023-08-20T01:36:12;101608.56;;;34.50;100.00
12991;BME280;6560;57.692;11.958;2023-08-20T01:38:39;101613.19;;;34.42;100.00
12991;BME280;6560;57.692;11.958;2023-08-20T01:41:05;101613.94;;;33.04;100.00
12991;BME280;6560;57.692;11.958;2023-08-20T01:43:30;101611.19;;;33.20;100.00
12991;BME280;6560;57.692;11.958;2023-08-20T01:45:57;101601.09;;;33.41;100.00
12991;BME280;6560;57.692;11.958;2023-08-20T01:48:22;101608.41;;;33.34;100.00
12991;BME280;6560;57.692;11.958;2023-08-20T01:50:48;101597.56;;;34.53;100.00
12991;BME280;6560;57.692;11.958;2023-08-20T01:53:14;101595.72;;;33.00;100.00
12991;BME280;6560;57.692;11.958;2023-08-20T01:55:40;101590.50;;;34.28;100.00
12991;BME280;6560;57.692;11.958;2023-08-20T01:58:07;101597.63;;;32.73;100.00
12991;BME280;6560;57.692;11.958;2023-08-20T02:00:32;101597.25;;;33.69;100.00
12991;BME280;6560;57.692;11.958;2023-08-20T02:02:59;101591.19;;;32.91;100.00
12991;BME280;6560;57.692;11.958;2023-08-20T02:05:25;101595.81;;;32.71;100.00
12991;BME280;6560;57.692;11.958;2023-08-20T02:07:50;101582.13;;;32.65;100.00
12991;BME280;6560;57.692;11.958;2023-08-20T02:10:17;101545.75;;;32.67;100.00
12991;BME280;6560;57.692;11.958;2023-08-20T02:12:43;101575.34;;;33.80;100.00
12991;BME280;6560;57.692;11.958;2023-08-20T02:15:09;101579.00;;;33.76;100.00
12991;BME280;6560;57.692;11.958;2023-08-20T02:17:36;101578.34;;;33.16;100.00
12991;BME280;6560;57.692;11.958;2023-08-20T02:20:03;101578.41;;;33.05;100.00
12991;BME280;6560;57.692;11.958;2023-08-20T02:22:29;101568.25;;;33.39;100.00
12991;BME280;6560;57.692;11.958;2023-08-20T02:24:56;101574.72;;;33.21;100.00
12991;BME280;6560;57.692;11.958;2023-08-20T02:27:23;101575.59;;;35.40;100.00
12991;BME280;6560;57.692;11.958;2023-08-20T02:29:48;101570.09;;;35.42;100.00
12991;BME280;6560;57.692;11.958;2023-08-20T02:32:15;101569.16;;;35.44;100.00
12991;BME280;6560;57.692;11.958;2023-08-20T02:34:41;101565.97;;;35.75;100.00
12991;BME280;6560;57.692;11.958;2023-08-20T02:37:06;101563.16;;;34.23;100.00
12991;BME280;6560;57.692;11.958;2023-08-20T02:39:32;101557.16;;;35.50;100.00
12991;BME280;6560;57.692;11.958;2023-08-20T02:41:57;101558.16;;;36.04;100.00
12991;BME280;6560;57.692;11.958;2023-08-20T02:44:23;101574.91;;;35.25;100.00
12991;BME280;6560;57.692;11.958;2023-08-20T02:46:48;101561.81;;;36.57;98.79
12991;BME280;6560;57.692;11.958;2023-08-20T02:49:14;101569.09;;;36.07;100.00
12991;BME280;6560;57.692;11.958;2023-08-20T02:51:40;101582.63;;;34.88;100.00
12991;BME280;6560;57.692;11.958;2023-08-20T02:54:06;101566.88;;;35.77;100.00
12991;BME280;6560;57.692;11.958;2023-08-20T02:56:32;101538.00;;;35.47;100.00
12991;BME280;6560;57.692;11.958;2023-08-20T02:58:57;101580.69;;;34.97;100.00
12991;BME280;6560;57.692;11.958;2023-08-20T03:01:25;101583.59;;;33.72;100.00
12991;BME280;6560;57.692;11.958;2023-08-20T03:03:50;101574.84;;;34.44;100.00
12991;BME280;6560;57.692;11.958;2023-08-20T03:06:16;101568.88;;;36.73;97.16
12991;BME280;6560;57.692;11.958;2023-08-20T03:08:42;101573.53;;;37.96;88.10
12991;BME280;6560;57.692;11.958;2023-08-20T03:11:07;101579.34;;;38.57;79.69
12991;BME280;6560;57.692;11.958;2023-08-20T03:13:33;101578.09;;;37.98;83.92
12991;BME280;6560;57.692;11.958;2023-08-20T03:15:58;101583.19;;;36.90;84.96
12991;BME280;6560;57.692;11.958;2023-08-20T03:18:24;101586.84;;;35.85;99.75
12991;BME280;6560;57.692;11.958;2023-08-20T03:20:49;101570.69;;;36.76;95.20
12991;BME280;6560;57.692;11.958;2023-08-20T03:23:16;101573.19;;;34.24;100.00
12991;BME280;6560;57.692;11.958;2023-08-20T03:25:42;101573.28;;;34.08;100.00
12991;BME280;6560;57.692;11.958;2023-08-20T03:28:12;101565.72;;;34.45;100.00
12991;BME280;6560;57.692;11.958;2023-08-20T03:30:37;101560.34;;;34.32;100.00
12991;BME280;6560;57.692;11.958;2023-08-20T03:33:03;101568.75;;;35.00;100.00
12991;BME280;6560;57.692;11.958;2023-08-20T03:35:29;101572.00;;;35.34;100.00
12991;BME280;6560;57.692;11.958;2023-08-20T03:37:55;101562.84;;;35.97;99.06
12991;BME280;6560;57.692;11.958;2023-08-20T03:40:22;101579.22;;;35.44;100.00
12991;BME280;6560;57.692;11.958;2023-08-20T03:42:48;101574.09;;;35.12;100.00
12991;BME280;6560;57.692;11.958;2023-08-20T03:45:14;101551.41;;;34.99;100.00
12991;BME280;6560;57.692;11.958;2023-08-20T03:47:39;101569.81;;;35.60;100.00
12991;BME280;6560;57.692;11.958;2023-08-20T03:50:07;101577.59;;;35.92;100.00
12991;BME280;6560;57.692;11.958;2023-08-20T03:52:33;101589.13;;;34.77;100.00
12991;BME280;6560;57.692;11.958;2023-08-20T03:54:59;101577.91;;;35.00;100.00
12991;BME280;6560;57.692;11.958;2023-08-20T03:57:25;101566.63;;;34.42;100.00
12991;BME280;6560;57.692;11.958;2023-08-20T03:59:52;101584.59;;;34.73;100.00
12991;BME280;6560;57.692;11.958;2023-08-20T04:02:18;101581.59;;;34.98;100.00
12991;BME280;6560;57.692;11.958;2023-08-20T04:04:43;101575.97;;;35.08;100.00
12991;BME280;6560;57.692;11.958;2023-08-20T04:07:09;101596.84;;;35.23;100.00
12991;BME280;6560;57.692;11.958;2023-08-20T04:09:34;101593.44;;;36.31;100.00
12991;BME280;6560;57.692;11.958;2023-08-20T04:12:01;101583.88;;;35.99;100.00
12991;BME280;6560;57.692;11.958;2023-08-20T04:14:27;101602.34;;;35.90;100.00
12991;BME280;6560;57.692;11.958;2023-08-20T04:16:54;101595.50;;;35.56;100.00
12991;BME280;6560;57.692;11.958;2023-08-20T04:19:20;101592.00;;;36.06;100.00
12991;BME280;6560;57.692;11.958;2023-08-20T04:21:46;101565.53;;;36.02;99.09
12991;BME280;6560;57.692;11.958;2023-08-20T04:24:11;101589.88;;;36.25;97.54
12991;BME280;6560;57.692;11.958;2023-08-20T04:26:37;101585.38;;;35.60;100.00
12991;BME280;6560;57.692;11.958;2023-08-20T04:29:03;101590.69;;;35.72;99.01
12991;BME280;6560;57.692;11.958;2023-08-20T04:31:28;101584.63;;;35.47;100.00
12991;BME280;6560;57.692;11.958;2023-08-20T04:33:54;101593.94;;;36.00;100.00
12991;BME280;6560;57.692;11.958;2023-08-20T04:36:19;101602.84;;;34.76;100.00
12991;BME280;6560;57.692;11.958;2023-08-20T04:38:45;101603.66;;;35.61;100.00
12991;BME280;6560;57.692;11.958;2023-08-20T04:41:11;101597.31;;;36.72;99.91
12991;BME280;6560;57.692;11.958;2023-08-20T04:43:36;101590.88;;;33.75;100.00
12991;BME280;6560;57.692;11.958;2023-08-20T04:46:02;101609.47;;;32.34;100.00
12991;BME280;6560;57.692;11.958;2023-08-20T04:48:27;101620.38;;;32.50;100.00
12991;BME280;6560;57.692;11.958;2023-08-20T04:50:53;101620.38;;;32.18;100.00
12991;BME280;6560;57.692;11.958;2023-08-20T04:53:18;101598.34;;;34.72;100.00
12991;BME280;6560;57.692;11.958;2023-08-20T04:55:44;101603.75;;;35.51;100.00
12991;BME280;6560;57.692;11.958;2023-08-20T04:58:09;101603.50;;;34.99;100.00
12991;BME280;6560;57.692;11.958;2023-08-20T05:00:34;101604.78;;;34.63;100.00
12991;BME280;6560;57.692;11.958;2023-08-20T05:03:00;101598.94;;;33.97;100.00
12991;BME280;6560;57.692;11.958;2023-08-20T05:05:26;101608.47;;;33.02;100.00
12991;BME280;6560;57.692;11.958;2023-08-20T05:07:54;101606.72;;;32.54;100.00
12991;BME280;6560;57.692;11.958;2023-08-20T05:10:19;101617.63;;;32.59;100.00
12991;BME280;6560;57.692;11.958;2023-08-20T05:12:45;101607.66;;;32.73;100.00
12991;BME280;6560;57.692;11.958;2023-08-20T05:15:11;101605.53;;;34.81;100.00
12991;BME280;6560;57.692;11.958;2023-08-20T05:17:36;101624.03;;;32.49;100.00
12991;BME280;6560;57.692;11.958;2023-08-20T05:20:02;101625.84;;;32.51;100.00
12991;BME280;6560;57.692;11.958;2023-08-20T05:22:28;101609.41;;;31.95;100.00
12991;BME280;6560;57.692;11.958;2023-08-20T05:24:54;101627.66;;;32.14;100.00
12991;BME280;6560;57.692;11.958;2023-08-20T05:27:19;101621.22;;;33.08;100.00
12991;BME280;6560;57.692;11.958;2023-08-20T05:29:45;101616.75;;;32.67;100.00
12991;BME280;6560;57.692;11.958;2023-08-20T05:32:11;101615.75;;;33.03;100.00
12991;BME280;6560;57.692;11.958;2023-08-20T05:34:36;101619.47;;;32.26;100.00
12991;BME280;6560;57.692;11.958;2023-08-20T05:37:03;101616.75;;;32.54;100.00
12991;BME280;6560;57.692;11.958;2023-08-20T05:39:37;101624.72;;;33.51;100.00
12991;BME280;6560;57.692;11.958;2023-08-20T05:42:03;101621.88;;;33.78;100.00
12991;BME280;6560;57.692;11.958;2023-08-20T05:44:29;101606.75;;;34.48;100.00
12991;BME280;6560;57.692;11.958;2023-08-20T05:46:54;101606.28;;;33.88;100.00
12991;BME280;6560;57.692;11.958;2023-08-20T05:49:20;101604.16;;;35.24;100.00
12991;BME280;6560;57.692;11.958;2023-08-20T05:51:45;101607.53;;;33.14;100.00
12991;BME280;6560;57.692;11.958;2023-08-20T05:54:11;101612.09;;;33.21;100.00
12991;BME280;6560;57.692;11.958;2023-08-20T05:56:38;101586.50;;;33.39;100.00
12991;BME280;6560;57.692;11.958;2023-08-20T05:59:06;101588.94;;;33.93;100.00
12991;BME280;6560;57.692;11.958;2023-08-20T06:01:32;101589.44;;;34.44;100.00
12991;BME280;6560;57.692;11.958;2023-08-20T06:03:57;101598.81;;;34.13;100.00
12991;BME280;6560;57.692;11.958;2023-08-20T06:06:23;101591.59;;;35.00;100.00
12991;BME280;6560;57.692;11.958;2023-08-20T06:08:48;101583.38;;;34.03;100.00
12991;BME280;6560;57.692;11.958;2023-08-20T06:11:14;101592.69;;;33.80;100.00
12991;BME280;6560;57.692;11.958;2023-08-20T06:13:40;101599.44;;;32.70;100.00
12991;BME280;6560;57.692;11.958;2023-08-20T06:16:07;101577.56;;;32.65;100.00
12991;BME280;6560;57.692;11.958;2023-08-20T06:18:34;101554.69;;;33.19;100.00
12991;BME280;6560;57.692;11.958;2023-08-20T06:20:59;101581.25;;;32.54;100.00
12991;BME280;6560;57.692;11.958;2023-08-20T06:23:24;101582.13;;;32.80;100.00
12991;BME280;6560;57.692;11.958;2023-08-20T06:25:51;101579.41;;;32.43;100.00
12991;BME280;6560;57.692;11.958;2023-08-20T06:28:17;101586.72;;;32.75;100.00
12991;BME280;6560;57.692;11.958;2023-08-20T06:30:46;101580.91;;;34.77;100.00
12991;BME280;6560;57.692;11.958;2023-08-20T06:33:12;101576.66;;;35.30;100.00
12991;BME280;6560;57.692;11.958;2023-08-20T06:35:38;101576.03;;;34.08;100.00
12991;BME280;6560;57.692;11.958;2023-08-20T06:38:04;101582.63;;;36.73;100.00
12991;BME280;6560;57.692;11.958;2023-08-20T06:40:31;101573.25;;;36.34;100.00
12991;BME280;6560;57.692;11.958;2023-08-20T06:42:56;101583.63;;;35.54;100.00
12991;BME280;6560;57.692;11.958;2023-08-20T06:45:22;101581.69;;;35.62;100.00
12991;BME280;6560;57.692;11.958;2023-08-20T06:47:47;101574.47;;;35.55;100.00
12991;BME280;6560;57.692;11.958;2023-08-20T06:50:13;101567.84;;;36.29;100.00
12991;BME280;6560;57.692;11.958;2023-08-20T06:52:40;101578.88;;;36.26;100.00
12991;BME280;6560;57.692;11.958;2023-08-20T06:55:07;101596.06;;;35.09;100.00
12991;BME280;6560;57.692;11.958;2023-08-20T06:57:32;101599.28;;;34.65;100.00
12991;BME280;6560;57.692;11.958;2023-08-20T06:59:59;101601.59;;;35.06;100.00
12991;BME280;6560;57.692;11.958;2023-08-20T07:02:25;101596.56;;;34.63;100.00
12991;BME280;6560;57.692;11.958;2023-08-20T07:04:51;101602.00;;;33.38;100.00
12991;BME280;6560;57.692;11.958;2023-08-20T07:07:17;101601.09;;;35.45;100.00
12991;BME280;6560;57.692;11.958;2023-08-20T07:09:43;101605.09;;;34.30;100.00
12991;BME280;6560;57.692;11.958;2023-08-20T07:12:08;101611.78;;;33.85;100.00
12991;BME280;6560;57.692;11.958;2023-08-20T07:14:34;101609.66;;;34.32;100.00
12991;BME280;6560;57.692;11.958;2023-08-20T07:16:59;101610.69;;;34.09;100.00
12991;BME280;6560;57.692;11.958;2023-08-20T07:19:28;101620.13;;;33.56;100.00
12991;BME280;6560;57.692;11.958;2023-08-20T07:21:54;101612.59;;;33.99;100.00
12991;BME280;6560;57.692;11.958;2023-08-20T07:24:20;101620.31;;;33.06;100.00
12991;BME280;6560;57.692;11.958;2023-08-20T07:26:51;101601.81;;;33.69;100.00
12991;BME280;6560;57.692;11.958;2023-08-20T07:29:17;101621.91;;;33.72;100.00
12991;BME280;6560;57.692;11.958;2023-08-20T07:31:42;101625.72;;;33.32;100.00
12991;BME280;6560;57.692;11.958;2023-08-20T07:34:08;101614.88;;;32.91;100.00
12991;BME280;6560;57.692;11.958;2023-08-20T07:36:34;101606.66;;;33.06;100.00
12991;BME280;6560;57.692;11.958;2023-08-20T07:38:59;101621.28;;;32.76;100.00
12991;BME280;6560;57.692;11.958;2023-08-20T07:41:25;101611.19;;;33.05;100.00
12991;BME280;6560;57.692;11.958;2023-08-20T07:43:53;101616.50;;;33.54;100.00
12991;BME280;6560;57.692;11.958;2023-08-20T07:46:19;101622.19;;;32.51;100.00
12991;BME280;6560;57.692;11.958;2023-08-20T07:48:44;101615.78;;;32.11;100.00
12991;BME280;6560;57.692;11.958;2023-08-20T07:51:11;101612.19;;;32.71;100.00
12991;BME280;6560;57.692;11.958;2023-08-20T07:53:37;101598.50;;;32.12;100.00
12991;BME280;6560;57.692;11.958;2023-08-20T07:56:04;101632.22;;;32.21;100.00
12991;BME280;6560;57.692;11.958;2023-08-20T07:58:29;101637.69;;;32.77;100.00
12991;BME280;6560;57.692;11.958;2023-08-20T08:00:55;101630.38;;;32.10;100.00
12991;BME280;6560;57.692;11.958;2023-08-20T08:03:21;101636.72;;;32.12;100.00
12991;BME280;6560;57.692;11.958;2023-08-20T08:05:48;101643.13;;;32.32;100.00
12991;BME280;6560;57.692;11.958;2023-08-20T08:08:17;101645.72;;;33.46;100.00
12991;BME280;6560;57.692;11.958;2023-08-20T08:10:43;101642.25;;;32.74;100.00
12991;BME280;6560;57.692;11.958;2023-08-20T08:13:13;101645.84;;;32.94;100.00
12991;BME280;6560;57.692;11.958;2023-08-20T08:15:38;101654.06;;;32.21;100.00
12991;BME280;6560;57.692;11.958;2023-08-20T08:18:04;101652.22;;;32.51;100.00
12991;BME280;6560;57.692;11.958;2023-08-20T08:20:30;101651.34;;;32.29;100.00
12991;BME280;6560;57.692;11.958;2023-08-20T08:22:58;101648.56;;;33.08;100.00
12991;BME280;6560;57.692;11.958;2023-08-20T08:25:26;101662.19;;;32.01;100.00
12991;BME280;6560;57.692;11.958;2023-08-20T08:27:53;101662.19;;;32.01;100.00
12991;BME280;6560;57.692;11.958;2023-08-20T08:30:20;101656.69;;;31.98;100.00
12991;BME280;6560;57.692;11.958;2023-08-20T08:32:46;101666.72;;;32.01;100.00
12991;BME280;6560;57.692;11.958;2023-08-20T08:35:12;101656.78;;;32.27;100.00
12991;BME280;6560;57.692;11.958;2023-08-20T08:37:37;101670.41;;;32.18;100.00
12991;BME280;6560;57.692;11.958;2023-08-20T08:40:03;101660.44;;;32.48;100.00
12991;BME280;6560;57.692;11.958;2023-08-20T08:42:33;101671.31;;;32.17;100.00
12991;BME280;6560;57.692;11.958;2023-08-20T08:45:02;101662.25;;;32.45;100.00
12991;BME280;6560;57.692;11.958;2023-08-20T08:47:29;101658.22;;;33.98;100.00
12991;BME280;6560;57.692;11.958;2023-08-20T08:49:55;101668.63;;;32.78;100.00
12991;BME280;6560;57.692;11.958;2023-08-20T08:52:26;101666.78;;;33.01;100.00
12991;BME280;6560;57.692;11.958;2023-08-20T08:54:54;101676.78;;;33.27;100.00
12991;BME280;6560;57.692;11.958;2023-08-20T08:57:20;101670.31;;;33.53;100.00
12991;BME280;6560;57.692;11.958;2023-08-20T08:59:46;101676.69;;;33.54;100.00
12991;BME280;6560;57.692;11.958;2023-08-20T09:02:13;101674.84;;;33.51;100.00
12991;BME280;6560;57.692;11.958;2023-08-20T09:04:42;101679.28;;;33.84;100.00
12991;BME280;6560;57.692;11.958;2023-08-20T09:07:12;101681.09;;;33.93;100.00
12991;BME280;6560;57.692;11.958;2023-08-20T09:09:42;101683.63;;;34.25;100.00
12991;BME280;6560;57.692;11.958;2023-08-20T09:12:20;101683.91;;;33.62;100.00
12991;BME280;6560;57.692;11.958;2023-08-20T09:14:50;101684.84;;;33.74;100.00
12991;BME280;6560;57.692;11.958;2023-08-20T09:17:16;101683.09;;;33.47;100.00
12991;BME280;6560;57.692;11.958;2023-08-20T09:19:43;101695.03;;;32.85;100.00
12991;BME280;6560;57.692;11.958;2023-08-20T09:22:14;101694.13;;;33.07;100.00
12991;BME280;6560;57.692;11.958;2023-08-20T09:24:40;101696.88;;;32.92;100.00
12991;BME280;6560;57.692;11.958;2023-08-20T09:27:14;101693.19;;;33.14;100.00
12991;BME280;6560;57.692;11.958;2023-08-20T09:29:55;101696.84;;;33.19;100.00
12991;BME280;6560;57.692;11.958;2023-08-20T09:32:24;101696.75;;;34.93;100.00
12991;BME280;6560;57.692;11.958;2023-08-20T09:34:51;101694.25;;;34.72;100.00
12991;BME280;6560;57.692;11.958;2023-08-20T09:37:19;101701.09;;;35.17;100.00
12991;BME280;6560;57.692;11.958;2023-08-20T09:39:45;101705.63;;;34.02;100.00
12991;BME280;6560;57.692;11.958;2023-08-20T09:42:11;101705.84;;;33.50;100.00
12991;BME280;6560;57.692;11.958;2023-08-20T09:44:42;101705.94;;;33.09;100.00
12991;BME280;6560;57.692;11.958;2023-08-20T09:47:09;101713.13;;;33.56;100.00
12991;BME280;6560;57.692;11.958;2023-08-20T09:49:45;101694.94;;;33.46;100.00
12991;BME280;6560;57.692;11.958;2023-08-20T09:52:35;101707.78;;;32.97;100.00
12991;BME280;6560;57.692;11.958;2023-08-20T09:55:16;101707.81;;;32.88;100.00
12991;BME280;6560;57.692;11.958;2023-08-20T09:57:41;101709.63;;;32.72;100.00
12991;BME280;6560;57.692;11.958;2023-08-20T10:00:11;101731.50;;;32.69;100.00
12991;BME280;6560;57.692;11.958;2023-08-20T10:02:39;101732.38;;;32.56;100.00
12991;BME280;6560;57.692;11.958;2023-08-20T10:05:10;101699.44;;;33.67;100.00
12991;BME280;6560;57.692;11.958;2023-08-20T10:07:37;101723.09;;;33.86;100.00
12991;BME280;6560;57.692;11.958;2023-08-20T10:10:08;101733.25;;;33.40;100.00
12991;BME280;6560;57.692;11.958;2023-08-20T10:12:36;101725.50;;;34.40;100.00
12991;BME280;6560;57.692;11.958;2023-08-20T10:15:04;101724.22;;;34.89;100.00
12991;BME280;6560;57.692;11.958;2023-08-20T10:17:34;101729.72;;;34.86;100.00
12991;BME280;6560;57.692;11.958;2023-08-20T10:20:02;101712.75;;;35.40;100.00
12991;BME280;6560;57.692;11.958;2023-08-20T10:22:44;101724.34;;;34.78;100.00
12991;BME280;6560;57.692;11.958;2023-08-20T10:25:12;101726.25;;;34.65;100.00
12991;BME280;6560;57.692;11.958;2023-08-20T10:27:48;101729.25;;;35.37;100.00
12991;BME280;6560;57.692;11.958;2023-08-20T10:30:18;101712.34;;;34.90;100.00
12991;BME280;6560;57.692;11.958;2023-08-20T10:32:53;101721.50;;;34.89;100.00
12991;BME280;6560;57.692;11.958;2023-08-20T10:35:27;101722.81;;;36.12;100.00
12991;BME280;6560;57.692;11.958;2023-08-20T10:38:13;101724.06;;;36.51;100.00
12991;BME280;6560;57.692;11.958;2023-08-20T10:40:57;101688.44;;;36.46;99.29
12991;BME280;6560;57.692;11.958;2023-08-20T10:43:31;101723.38;;;36.95;98.22
12991;BME280;6560;57.692;11.958;2023-08-20T10:48:56;101718.28;;;36.70;97.38
12991;BME280;6560;57.692;11.958;2023-08-20T10:51:30;101694.47;;;37.22;97.69
12991;BME280;6560;57.692;11.958;2023-08-20T10:56:45;101718.88;;;36.34;93.44
12991;BME280;6560;57.692;11.958;2023-08-20T10:59:16;101716.50;;;36.07;96.79
12991;BME280;6560;57.692;11.958;2023-08-20T11:02:00;101714.50;;;36.21;93.61
12991;BME280;6560;57.692;11.958;2023-08-20T11:04:31;101715.19;;;35.69;97.57
12991;BME280;6560;57.692;11.958;2023-08-20T11:07:00;101684.38;;;35.44;100.00
12991;BME280;6560;57.692;11.958;2023-08-20T11:09:30;101711.22;;;37.06;91.74
12991;BME280;6560;57.692;11.958;2023-08-20T11:11:58;101689.88;;;36.70;93.03
12991;BME280;6560;57.692;11.958;2023-08-20T11:14:24;101706.94;;;36.90;90.47
12991;BME280;6560;57.692;11.958;2023-08-20T11:16:50;101723.41;;;35.65;97.59
12991;BME280;6560;57.692;11.958;2023-08-20T11:19:20;101720.31;;;35.14;96.92
12991;BME280;6560;57.692;11.958;2023-08-20T11:21:48;101730.03;;;35.50;95.14
12991;BME280;6560;57.692;11.958;2023-08-20T11:24:16;101724.09;;;35.88;94.13
12991;BME280;6560;57.692;11.958;2023-08-20T11:26:42;101723.00;;;36.61;93.20
12991;BME280;6560;57.692;11.958;2023-08-20T11:29:09;101718.75;;;35.76;90.17
12991;BME280;6560;57.692;11.958;2023-08-20T11:31:36;101723.66;;;36.18;90.16
12991;BME280;6560;57.692;11.958;2023-08-20T11:34:03;101719.44;;;35.93;85.09
12991;BME280;6560;57.692;11.958;2023-08-20T11:36:29;101729.41;;;36.00;83.59
12991;BME280;6560;57.692;11.958;2023-08-20T11:38:54;101721.31;;;35.05;88.83
12991;BME280;6560;57.692;11.958;2023-08-20T11:41:22;101729.72;;;34.90;90.88
12991;BME280;6560;57.692;11.958;2023-08-20T11:43:48;101735.22;;;34.86;92.32
12991;BME280;6560;57.692;11.958;2023-08-20T11:46:15;101715.50;;;36.12;86.63
12991;BME280;6560;57.692;11.958;2023-08-20T11:49:04;101735.81;;;35.24;87.29
12991;BME280;6560;57.692;11.958;2023-08-20T11:51:49;101738.94;;;36.39;85.59
12991;BME280;6560;57.692;11.958;2023-08-20T11:54:17;101731.22;;;37.65;79.97
12991;BME280;6560;57.692;11.958;2023-08-20T11:56:50;101724.16;;;37.50;78.79
12991;BME280;6560;57.692;11.958;2023-08-20T11:59:19;101725.63;;;38.11;74.72
12991;BME280;6560;57.692;11.958;2023-08-20T12:01:57;101702.97;;;38.37;73.68
12991;BME280;6560;57.692;11.958;2023-08-20T12:04:28;101728.66;;;37.98;72.28
12991;BME280;6560;57.692;11.958;2023-08-20T12:07:13;101724.94;;;38.00;73.92
12991;BME280;6560;57.692;11.958;2023-08-20T12:09:39;101723.91;;;37.64;73.10
12991;BME280;6560;57.692;11.958;2023-08-20T12:12:06;101722.19;;;37.56;73.27
12991;BME280;6560;57.692;11.958;2023-08-20T12:14:32;101721.50;;;37.46;73.58
12991;BME280;6560;57.692;11.958;2023-08-20T12:16:58;101711.09;;;37.62;71.42
12991;BME280;6560;57.692;11.958;2023-08-20T12:19:24;101721.75;;;35.53;75.35
12991;BME280;6560;57.692;11.958;2023-08-20T12:21:50;101720.47;;;37.50;72.48
12991;BME280;6560;57.692;11.958;2023-08-20T12:24:16;101735.97;;;37.57;66.77
12991;BME280;6560;57.692;11.958;2023-08-20T12:26:42;101721.19;;;38.44;65.23
12991;BME280;6560;57.692;11.958;2023-08-20T12:29:07;101729.44;;;38.44;62.72
12991;BME280;6560;57.692;11.958;2023-08-20T12:31:34;101736.06;;;35.81;70.41
12991;BME280;6560;57.692;11.958;2023-08-20T12:33:59;101729.22;;;36.14;69.88
12991;BME280;6560;57.692;11.958;2023-08-20T12:36:25;101723.47;;;35.60;73.20
12991;BME280;6560;57.692;11.958;2023-08-20T12:38:50;101737.59;;;35.25;73.28
12991;BME280;6560;57.692;11.958;2023-08-20T12:41:16;101729.00;;;34.61;74.41
12991;BME280;6560;57.692;11.958;2023-08-20T12:43:42;101730.56;;;34.92;72.11
12991;BME280;6560;57.692;11.958;2023-08-20T12:46:07;101741.47;;;35.00;71.16
12991;BME280;6560;57.692;11.958;2023-08-20T12:48:33;101732.38;;;34.98;70.01
12991;BME280;6560;57.692;11.958;2023-08-20T12:50:58;101726.47;;;35.40;68.88
12991;BME280;6560;57.692;11.958;2023-08-20T12:53:24;101719.16;;;34.35;72.42
12991;BME280;6560;57.692;11.958;2023-08-20T12:55:49;101740.09;;;34.44;71.98